sensor_id;sensor_type;location;lat;lon;timestamp;P1;durP1;ratioP1;P2;durP2;ratioP2
21569;SDS011;57598;50.888;4.746;2023-05-10T00:01:13;78.90;;;72.22;;
21569;SDS011;57598;50.888;4.746;2023-05-10T00:03:40;77.45;;;71.10;;
21569;SDS011;57598;50.888;4.746;2023-05-10T00:06:07;76.90;;;70.50;;
21569;SDS011;57598;50.888;4.746;2023-05-10T00:08:34;76.15;;;69.95;;
21569;SDS011;57598;50.888;4.746;2023-05-10T00:11:01;75.70;;;69.47;;
21569;SDS011;57598;50.888;4.746;2023-05-10T00:13:30;74.13;;;67.93;;
21569;SDS011;57598;50.888;4.746;2023-05-10T00:15:57;71.95;;;65.55;;
21569;SDS011;57598;50.888;4.746;2023-05-10T00:18:24;70.60;;;64.50;;
21569;SDS011;57598;50.888;4.746;2023-05-10T00:20:51;73.07;;;66.78;;
21569;SDS011;57598;50.888;4.746;2023-05-10T00:23:18;70.32;;;64.25;;
21569;SDS011;57598;50.888;4.746;2023-05-10T00:25:45;69.30;;;63.40;;
21569;SDS011;57598;50.888;4.746;2023-05-10T00:28:12;69.30;;;63.38;;
21569;SDS011;57598;50.888;4.746;2023-05-10T00:30:41;65.50;;;59.80;;
21569;SDS011;57598;50.888;4.746;2023-05-10T00:33:08;64.50;;;58.80;;
21569;SDS011;57598;50.888;4.746;2023-05-10T00:35:36;63.90;;;58.33;;
21569;SDS011;57598;50.888;4.746;2023-05-10T00:38:03;63.40;;;57.72;;
21569;SDS011;57598;50.888;4.746;2023-05-10T00:40:30;60.72;;;55.00;;
21569;SDS011;57598;50.888;4.746;2023-05-10T00:42:57;60.05;;;54.60;;
21569;SDS011;57598;50.888;4.746;2023-05-10T00:45:24;59.65;;;54.38;;
21569;SDS011;57598;50.888;4.746;2023-05-10T00:47:53;60.95;;;55.53;;
21569;SDS011;57598;50.888;4.746;2023-05-10T00:50:21;60.38;;;54.88;;
21569;SDS011;57598;50.888;4.746;2023-05-10T00:52:48;56.88;;;51.58;;
21569;SDS011;57598;50.888;4.746;2023-05-10T00:55:16;58.30;;;52.75;;
21569;SDS011;57598;50.888;4.746;2023-05-10T00:57:43;53.45;;;48.45;;
21569;SDS011;57598;50.888;4.746;2023-05-10T01:00:11;54.63;;;49.33;;
21569;SDS011;57598;50.888;4.746;2023-05-10T01:02:43;53.50;;;48.50;;
21569;SDS011;57598;50.888;4.746;2023-05-10T01:05:12;53.85;;;48.78;;
21569;SDS011;57598;50.888;4.746;2023-05-10T01:07:39;55.67;;;50.20;;
21569;SDS011;57598;50.888;4.746;2023-05-10T01:10:07;53.42;;;48.17;;
21569;SDS011;57598;50.888;4.746;2023-05-10T01:12:36;54.95;;;49.67;;
21569;SDS011;57598;50.888;4.746;2023-05-10T01:15:05;52.75;;;47.55;;
21569;SDS011;57598;50.888;4.746;2023-05-10T01:17:34;54.97;;;49.42;;
21569;SDS011;57598;50.888;4.746;2023-05-10T01:20:04;52.83;;;47.53;;
21569;SDS011;57598;50.888;4.746;2023-05-10T01:22:47;56.22;;;50.72;;
21569;SDS011;57598;50.888;4.746;2023-05-10T01:25:31;52.28;;;47.13;;
21569;SDS011;57598;50.888;4.746;2023-05-10T01:28:33;52.45;;;47.25;;
21569;SDS011;57598;50.888;4.746;2023-05-10T01:31:22;52.33;;;47.22;;
21569;SDS011;57598;50.888;4.746;2023-05-10T01:34:02;53.15;;;48.05;;
21569;SDS011;57598;50.888;4.746;2023-05-10T01:36:35;50.25;;;45.20;;
21569;SDS011;57598;50.888;4.746;2023-05-10T01:39:11;49.85;;;44.95;;
21569;SDS011;57598;50.888;4.746;2023-05-10T01:41:45;48.92;;;44.08;;
21569;SDS011;57598;50.888;4.746;2023-05-10T01:44:29;52.97;;;45.65;;
21569;SDS011;57598;50.888;4.746;2023-05-10T01:47:03;52.42;;;47.03;;
21569;SDS011;57598;50.888;4.746;2023-05-10T01:49:36;48.10;;;43.20;;
21569;SDS011;57598;50.888;4.746;2023-05-10T01:52:08;46.97;;;42.28;;
21569;SDS011;57598;50.888;4.746;2023-05-10T01:54:39;49.28;;;44.35;;
21569;SDS011;57598;50.888;4.746;2023-05-10T01:57:15;51.15;;;45.83;;
21569;SDS011;57598;50.888;4.746;2023-05-10T01:59:45;46.78;;;42.08;;
21569;SDS011;57598;50.888;4.746;2023-05-10T02:02:17;45.78;;;40.97;;
21569;SDS011;57598;50.888;4.746;2023-05-10T02:04:48;44.95;;;40.35;;
21569;SDS011;57598;50.888;4.746;2023-05-10T02:07:16;42.58;;;38.22;;
21569;SDS011;57598;50.888;4.746;2023-05-10T02:09:44;45.00;;;40.50;;
21569;SDS011;57598;50.888;4.746;2023-05-10T02:12:13;42.60;;;38.30;;
21569;SDS011;57598;50.888;4.746;2023-05-10T02:14:41;42.08;;;37.88;;
21569;SDS011;57598;50.888;4.746;2023-05-10T02:17:09;42.13;;;37.83;;
21569;SDS011;57598;50.888;4.746;2023-05-10T02:19:38;39.47;;;35.42;;
21569;SDS011;57598;50.888;4.746;2023-05-10T02:22:08;40.30;;;36.03;;
21569;SDS011;57598;50.888;4.746;2023-05-10T02:24:36;39.10;;;35.00;;
21569;SDS011;57598;50.888;4.746;2023-05-10T02:27:06;41.47;;;37.25;;
21569;SDS011;57598;50.888;4.746;2023-05-10T02:29:34;38.92;;;34.92;;
21569;SDS011;57598;50.888;4.746;2023-05-10T02:32:02;40.03;;;35.58;;
21569;SDS011;57598;50.888;4.746;2023-05-10T02:34:30;38.50;;;34.60;;
21569;SDS011;57598;50.888;4.746;2023-05-10T02:36:58;39.10;;;35.10;;
21569;SDS011;57598;50.888;4.746;2023-05-10T02:39:28;40.42;;;36.33;;
21569;SDS011;57598;50.888;4.746;2023-05-10T02:41:56;38.85;;;34.88;;
21569;SDS011;57598;50.888;4.746;2023-05-10T02:44:23;38.65;;;34.75;;
21569;SDS011;57598;50.888;4.746;2023-05-10T02:46:53;38.42;;;34.53;;
21569;SDS011;57598;50.888;4.746;2023-05-10T02:49:22;38.70;;;34.80;;
21569;SDS011;57598;50.888;4.746;2023-05-10T02:51:50;37.85;;;33.95;;
21569;SDS011;57598;50.888;4.746;2023-05-10T02:54:23;38.53;;;34.58;;
21569;SDS011;57598;50.888;4.746;2023-05-10T02:56:57;38.65;;;34.70;;
21569;SDS011;57598;50.888;4.746;2023-05-10T02:59:26;39.63;;;35.63;;
21569;SDS011;57598;50.888;4.746;2023-05-10T03:01:53;37.85;;;33.95;;
21569;SDS011;57598;50.888;4.746;2023-05-10T03:04:20;39.00;;;35.00;;
21569;SDS011;57598;50.888;4.746;2023-05-10T03:06:47;40.78;;;36.58;;
21569;SDS011;57598;50.888;4.746;2023-05-10T03:09:14;39.22;;;35.22;;
21569;SDS011;57598;50.888;4.746;2023-05-10T03:11:47;38.80;;;34.80;;
21569;SDS011;57598;50.888;4.746;2023-05-10T03:14:25;39.03;;;35.03;;
21569;SDS011;57598;50.888;4.746;2023-05-10T03:17:00;39.65;;;35.55;;
21569;SDS011;57598;50.888;4.746;2023-05-10T03:19:39;42.10;;;37.63;;
21569;SDS011;57598;50.888;4.746;2023-05-10T03:22:16;39.35;;;35.35;;
21569;SDS011;57598;50.888;4.746;2023-05-10T03:24:49;41.17;;;36.97;;
21569;SDS011;57598;50.888;4.746;2023-05-10T03:27:20;39.23;;;35.23;;
21569;SDS011;57598;50.888;4.746;2023-05-10T03:29:51;43.38;;;38.63;;
21569;SDS011;57598;50.888;4.746;2023-05-10T03:32:21;42.67;;;34.30;;
21569;SDS011;57598;50.888;4.746;2023-05-10T03:34:48;40.47;;;36.20;;
21569;SDS011;57598;50.888;4.746;2023-05-10T03:37:15;42.70;;;38.10;;
21569;SDS011;57598;50.888;4.746;2023-05-10T03:39:42;81.50;;;74.20;;
21569;SDS011;57598;50.888;4.746;2023-05-10T03:42:10;128.13;;;116.50;;
21569;SDS011;57598;50.888;4.746;2023-05-10T03:44:37;138.20;;;125.78;;
21569;SDS011;57598;50.888;4.746;2023-05-10T03:47:05;126.28;;;115.88;;
21569;SDS011;57598;50.888;4.746;2023-05-10T03:49:32;138.77;;;127.97;;
21569;SDS011;57598;50.888;4.746;2023-05-10T03:51:59;163.90;;;151.25;;
21569;SDS011;57598;50.888;4.746;2023-05-10T03:54:26;147.20;;;135.65;;
21569;SDS011;57598;50.888;4.746;2023-05-10T03:56:53;138.15;;;127.15;;
21569;SDS011;57598;50.888;4.746;2023-05-10T03:59:20;135.30;;;124.18;;
21569;SDS011;57598;50.888;4.746;2023-05-10T04:01:47;139.02;;;128.18;;
21569;SDS011;57598;50.888;4.746;2023-05-10T04:04:15;149.75;;;138.60;;
21569;SDS011;57598;50.888;4.746;2023-05-10T04:06:43;117.00;;;107.30;;
21569;SDS011;57598;50.888;4.746;2023-05-10T04:09:10;111.90;;;102.78;;
21569;SDS011;57598;50.888;4.746;2023-05-10T04:11:37;132.07;;;120.55;;
21569;SDS011;57598;50.888;4.746;2023-05-10T04:14:04;151.23;;;140.48;;
21569;SDS011;57598;50.888;4.746;2023-05-10T04:16:31;156.00;;;143.80;;
21569;SDS011;57598;50.888;4.746;2023-05-10T04:18:58;148.75;;;137.60;;
21569;SDS011;57598;50.888;4.746;2023-05-10T04:21:27;122.15;;;112.45;;
21569;SDS011;57598;50.888;4.746;2023-05-10T04:23:54;125.57;;;116.07;;
21569;SDS011;57598;50.888;4.746;2023-05-10T04:26:21;138.60;;;128.05;;
21569;SDS011;57598;50.888;4.746;2023-05-10T04:28:48;140.90;;;130.15;;
21569;SDS011;57598;50.888;4.746;2023-05-10T04:31:15;139.25;;;127.82;;
21569;SDS011;57598;50.888;4.746;2023-05-10T04:33:42;127.72;;;116.95;;
21569;SDS011;57598;50.888;4.746;2023-05-10T04:36:09;128.68;;;118.82;;
21569;SDS011;57598;50.888;4.746;2023-05-10T04:38:38;141.23;;;130.60;;
21569;SDS011;57598;50.888;4.746;2023-05-10T04:41:05;149.18;;;137.65;;
21569;SDS011;57598;50.888;4.746;2023-05-10T04:43:33;144.32;;;132.45;;
21569;SDS011;57598;50.888;4.746;2023-05-10T04:46:00;126.43;;;116.22;;
21569;SDS011;57598;50.888;4.746;2023-05-10T04:48:27;139.32;;;128.43;;
21569;SDS011;57598;50.888;4.746;2023-05-10T04:50:54;132.25;;;122.70;;
21569;SDS011;57598;50.888;4.746;2023-05-10T04:53:21;127.00;;;117.88;;
21569;SDS011;57598;50.888;4.746;2023-05-10T04:55:50;132.75;;;122.90;;
21569;SDS011;57598;50.888;4.746;2023-05-10T04:58:17;137.02;;;127.25;;
21569;SDS011;57598;50.888;4.746;2023-05-10T05:00:44;137.75;;;128.25;;
21569;SDS011;57598;50.888;4.746;2023-05-10T05:03:11;157.40;;;146.07;;
21569;SDS011;57598;50.888;4.746;2023-05-10T05:05:38;141.32;;;131.50;;
21569;SDS011;57598;50.888;4.746;2023-05-10T05:08:05;140.65;;;129.40;;
21569;SDS011;57598;50.888;4.746;2023-05-10T05:10:32;143.10;;;133.15;;
21569;SDS011;57598;50.888;4.746;2023-05-10T05:13:00;153.63;;;141.82;;
21569;SDS011;57598;50.888;4.746;2023-05-10T05:15:27;144.32;;;134.15;;
21569;SDS011;57598;50.888;4.746;2023-05-10T05:17:55;157.02;;;146.15;;
21569;SDS011;57598;50.888;4.746;2023-05-10T05:20:22;146.45;;;136.25;;
21569;SDS011;57598;50.888;4.746;2023-05-10T05:22:49;146.07;;;136.32;;
21569;SDS011;57598;50.888;4.746;2023-05-10T05:25:16;148.18;;;138.27;;
21569;SDS011;57598;50.888;4.746;2023-05-10T05:27:43;148.73;;;138.65;;
21569;SDS011;57598;50.888;4.746;2023-05-10T05:30:12;144.40;;;134.18;;
21569;SDS011;57598;50.888;4.746;2023-05-10T05:32:39;141.73;;;132.32;;
21569;SDS011;57598;50.888;4.746;2023-05-10T05:35:06;139.23;;;129.50;;
21569;SDS011;57598;50.888;4.746;2023-05-10T05:37:33;121.85;;;113.15;;
21569;SDS011;57598;50.888;4.746;2023-05-10T05:40:02;116.65;;;108.47;;
21569;SDS011;57598;50.888;4.746;2023-05-10T05:42:30;111.75;;;103.85;;
21569;SDS011;57598;50.888;4.746;2023-05-10T05:44:58;100.95;;;93.75;;
21569;SDS011;57598;50.888;4.746;2023-05-10T05:47:26;101.07;;;94.05;;
21569;SDS011;57598;50.888;4.746;2023-05-10T05:49:53;95.32;;;88.25;;
21569;SDS011;57598;50.888;4.746;2023-05-10T05:52:20;93.18;;;86.47;;
21569;SDS011;57598;50.888;4.746;2023-05-10T05:54:47;94.75;;;88.05;;
21569;SDS011;57598;50.888;4.746;2023-05-10T05:57:14;96.60;;;89.13;;
21569;SDS011;57598;50.888;4.746;2023-05-10T05:59:41;95.43;;;88.35;;
21569;SDS011;57598;50.888;4.746;2023-05-10T06:02:09;91.53;;;84.65;;
21569;SDS011;57598;50.888;4.746;2023-05-10T06:04:37;94.45;;;87.13;;
21569;SDS011;57598;50.888;4.746;2023-05-10T06:07:04;89.97;;;83.47;;
21569;SDS011;57598;50.888;4.746;2023-05-10T06:09:31;90.75;;;83.72;;
21569;SDS011;57598;50.888;4.746;2023-05-10T06:11:58;86.57;;;80.43;;
21569;SDS011;57598;50.888;4.746;2023-05-10T06:14:25;89.25;;;82.60;;
21569;SDS011;57598;50.888;4.746;2023-05-10T06:16:52;90.28;;;83.85;;
21569;SDS011;57598;50.888;4.746;2023-05-10T06:19:19;89.35;;;82.72;;
21569;SDS011;57598;50.888;4.746;2023-05-10T06:21:48;88.40;;;82.13;;
21569;SDS011;57598;50.888;4.746;2023-05-10T06:24:15;88.72;;;82.57;;
21569;SDS011;57598;50.888;4.746;2023-05-10T06:26:42;92.95;;;85.85;;
21569;SDS011;57598;50.888;4.746;2023-05-10T06:29:09;84.13;;;78.10;;
21569;SDS011;57598;50.888;4.746;2023-05-10T06:31:36;84.75;;;78.20;;
21569;SDS011;57598;50.888;4.746;2023-05-10T06:34:03;83.57;;;77.57;;
21569;SDS011;57598;50.888;4.746;2023-05-10T06:36:33;81.82;;;75.78;;
21569;SDS011;57598;50.888;4.746;2023-05-10T06:39:01;89.18;;;82.63;;
21569;SDS011;57598;50.888;4.746;2023-05-10T06:41:28;81.45;;;74.40;;
21569;SDS011;57598;50.888;4.746;2023-05-10T06:43:55;77.82;;;71.63;;
21569;SDS011;57598;50.888;4.746;2023-05-10T06:46:22;74.05;;;68.15;;
21569;SDS011;57598;50.888;4.746;2023-05-10T06:48:49;77.22;;;71.32;;
21569;SDS011;57598;50.888;4.746;2023-05-10T06:51:16;73.68;;;67.80;;
21569;SDS011;57598;50.888;4.746;2023-05-10T06:53:43;72.75;;;66.68;;
21569;SDS011;57598;50.888;4.746;2023-05-10T06:56:11;71.38;;;65.85;;
21569;SDS011;57598;50.888;4.746;2023-05-10T06:58:38;69.55;;;63.65;;
21569;SDS011;57598;50.888;4.746;2023-05-10T07:01:05;66.57;;;61.58;;
21569;SDS011;57598;50.888;4.746;2023-05-10T07:03:32;66.07;;;60.80;;
21569;SDS011;57598;50.888;4.746;2023-05-10T07:05:59;65.70;;;60.35;;
21569;SDS011;57598;50.888;4.746;2023-05-10T07:08:29;58.72;;;53.92;;
21569;SDS011;57598;50.888;4.746;2023-05-10T07:10:59;56.05;;;51.35;;
21569;SDS011;57598;50.888;4.746;2023-05-10T07:13:28;57.40;;;52.35;;
21569;SDS011;57598;50.888;4.746;2023-05-10T07:15:55;51.42;;;47.20;;
21569;SDS011;57598;50.888;4.746;2023-05-10T07:18:22;52.10;;;47.00;;
21569;SDS011;57598;50.888;4.746;2023-05-10T07:20:49;48.55;;;44.42;;
21569;SDS011;57598;50.888;4.746;2023-05-10T07:23:16;50.03;;;45.83;;
21569;SDS011;57598;50.888;4.746;2023-05-10T07:25:44;50.45;;;46.45;;
21569;SDS011;57598;50.888;4.746;2023-05-10T07:28:12;48.55;;;44.35;;
21569;SDS011;57598;50.888;4.746;2023-05-10T07:30:41;48.38;;;44.03;;
21569;SDS011;57598;50.888;4.746;2023-05-10T07:33:08;45.70;;;41.67;;
21569;SDS011;57598;50.888;4.746;2023-05-10T07:35:36;43.88;;;39.90;;
21569;SDS011;57598;50.888;4.746;2023-05-10T07:38:03;45.75;;;41.55;;
21569;SDS011;57598;50.888;4.746;2023-05-10T07:40:30;46.92;;;42.38;;
21569;SDS011;57598;50.888;4.746;2023-05-10T07:42:58;44.50;;;40.00;;
21569;SDS011;57598;50.888;4.746;2023-05-10T07:45:26;47.72;;;43.03;;
21569;SDS011;57598;50.888;4.746;2023-05-10T07:47:55;44.40;;;40.03;;
21569;SDS011;57598;50.888;4.746;2023-05-10T07:50:22;45.90;;;41.70;;
21569;SDS011;57598;50.888;4.746;2023-05-10T07:52:49;46.22;;;41.92;;
21569;SDS011;57598;50.888;4.746;2023-05-10T07:55:16;49.10;;;44.35;;
21569;SDS011;57598;50.888;4.746;2023-05-10T07:57:45;45.00;;;40.80;;
21569;SDS011;57598;50.888;4.746;2023-05-10T08:00:12;47.88;;;43.25;;
21569;SDS011;57598;50.888;4.746;2023-05-10T08:02:42;45.10;;;40.90;;
21569;SDS011;57598;50.888;4.746;2023-05-10T08:05:11;45.85;;;41.65;;
21569;SDS011;57598;50.888;4.746;2023-05-10T08:07:38;44.45;;;40.25;;
21569;SDS011;57598;50.888;4.746;2023-05-10T08:10:06;45.17;;;40.97;;
21569;SDS011;57598;50.888;4.746;2023-05-10T08:12:34;46.45;;;42.15;;
21569;SDS011;57598;50.888;4.746;2023-05-10T08:15:01;50.55;;;45.75;;
21569;SDS011;57598;50.888;4.746;2023-05-10T08:17:28;48.42;;;43.95;;
21569;SDS011;57598;50.888;4.746;2023-05-10T08:19:55;48.67;;;44.25;;
21569;SDS011;57598;50.888;4.746;2023-05-10T08:22:24;45.42;;;41.17;;
21569;SDS011;57598;50.888;4.746;2023-05-10T08:24:51;42.28;;;38.38;;
21569;SDS011;57598;50.888;4.746;2023-05-10T08:27:18;49.50;;;44.35;;
21569;SDS011;57598;50.888;4.746;2023-05-10T08:29:45;44.30;;;40.10;;
21569;SDS011;57598;50.888;4.746;2023-05-10T08:32:12;45.33;;;41.03;;
21569;SDS011;57598;50.888;4.746;2023-05-10T08:34:39;45.70;;;41.33;;
21569;SDS011;57598;50.888;4.746;2023-05-10T08:37:06;44.50;;;40.28;;
21569;SDS011;57598;50.888;4.746;2023-05-10T08:39:35;45.25;;;40.92;;
21569;SDS011;57598;50.888;4.746;2023-05-10T08:42:03;47.35;;;42.58;;
21569;SDS011;57598;50.888;4.746;2023-05-10T08:44:32;46.80;;;41.97;;
21569;SDS011;57598;50.888;4.746;2023-05-10T08:47:01;45.55;;;41.25;;
21569;SDS011;57598;50.888;4.746;2023-05-10T08:49:31;48.90;;;44.23;;
21569;SDS011;57598;50.888;4.746;2023-05-10T08:51:59;46.05;;;41.40;;
21569;SDS011;57598;50.888;4.746;2023-05-10T08:54:31;41.33;;;37.42;;
21569;SDS011;57598;50.888;4.746;2023-05-10T08:57:00;45.28;;;41.03;;
21569;SDS011;57598;50.888;4.746;2023-05-10T08:59:27;42.00;;;37.47;;
21569;SDS011;57598;50.888;4.746;2023-05-10T09:01:55;44.03;;;39.60;;
21569;SDS011;57598;50.888;4.746;2023-05-10T09:04:24;43.50;;;39.10;;
21569;SDS011;57598;50.888;4.746;2023-05-10T09:06:52;45.95;;;41.15;;
21569;SDS011;57598;50.888;4.746;2023-05-10T09:09:19;49.97;;;44.97;;
21569;SDS011;57598;50.888;4.746;2023-05-10T09:11:46;58.35;;;53.13;;
21569;SDS011;57598;50.888;4.746;2023-05-10T09:14:15;134.95;;;124.35;;
21569;SDS011;57598;50.888;4.746;2023-05-10T09:16:43;118.72;;;109.32;;
21569;SDS011;57598;50.888;4.746;2023-05-10T09:19:10;108.60;;;100.03;;
21569;SDS011;57598;50.888;4.746;2023-05-10T09:21:38;95.35;;;87.65;;
21569;SDS011;57598;50.888;4.746;2023-05-10T09:24:05;80.55;;;73.45;;
21569;SDS011;57598;50.888;4.746;2023-05-10T09:26:33;81.07;;;74.25;;
21569;SDS011;57598;50.888;4.746;2023-05-10T09:29:00;78.47;;;71.90;;
21569;SDS011;57598;50.888;4.746;2023-05-10T09:31:46;73.85;;;67.55;;
21569;SDS011;57598;50.888;4.746;2023-05-10T09:34:16;77.07;;;70.75;;
21569;SDS011;57598;50.888;4.746;2023-05-10T09:36:51;79.65;;;73.15;;
21569;SDS011;57598;50.888;4.746;2023-05-10T09:39:19;78.93;;;72.00;;
21569;SDS011;57598;50.888;4.746;2023-05-10T09:41:46;80.22;;;73.72;;
21569;SDS011;57598;50.888;4.746;2023-05-10T09:44:16;77.68;;;71.47;;
21569;SDS011;57598;50.888;4.746;2023-05-10T09:46:49;79.23;;;72.80;;
21569;SDS011;57598;50.888;4.746;2023-05-10T09:49:17;76.50;;;70.38;;
21569;SDS011;57598;50.888;4.746;2023-05-10T09:51:45;81.18;;;74.68;;
21569;SDS011;57598;50.888;4.746;2023-05-10T09:54:13;72.88;;;67.07;;
21569;SDS011;57598;50.888;4.746;2023-05-10T09:56:42;72.97;;;67.07;;
21569;SDS011;57598;50.888;4.746;2023-05-10T09:59:09;75.40;;;69.50;;
21569;SDS011;57598;50.888;4.746;2023-05-10T10:01:37;73.45;;;67.65;;
21569;SDS011;57598;50.888;4.746;2023-05-10T10:04:10;81.32;;;75.13;;
21569;SDS011;57598;50.888;4.746;2023-05-10T10:06:37;86.13;;;79.53;;
21569;SDS011;57598;50.888;4.746;2023-05-10T10:09:05;91.22;;;84.32;;
21569;SDS011;57598;50.888;4.746;2023-05-10T10:11:33;88.90;;;82.10;;
21569;SDS011;57598;50.888;4.746;2023-05-10T10:14:02;83.95;;;77.40;;
21569;SDS011;57598;50.888;4.746;2023-05-10T10:16:30;80.20;;;74.00;;
21569;SDS011;57598;50.888;4.746;2023-05-10T10:18:58;82.57;;;76.32;;
21569;SDS011;57598;50.888;4.746;2023-05-10T10:21:26;86.88;;;80.25;;
21569;SDS011;57598;50.888;4.746;2023-05-10T10:23:53;83.15;;;76.45;;
21569;SDS011;57598;50.888;4.746;2023-05-10T10:26:21;76.00;;;70.10;;
21569;SDS011;57598;50.888;4.746;2023-05-10T10:28:49;70.90;;;65.30;;
21569;SDS011;57598;50.888;4.746;2023-05-10T10:31:25;66.95;;;61.55;;
21569;SDS011;57598;50.888;4.746;2023-05-10T10:34:03;65.47;;;60.15;;
21569;SDS011;57598;50.888;4.746;2023-05-10T10:36:34;61.35;;;56.20;;
21569;SDS011;57598;50.888;4.746;2023-05-10T10:39:08;63.75;;;58.45;;
21569;SDS011;57598;50.888;4.746;2023-05-10T10:41:38;66.38;;;60.97;;
21569;SDS011;57598;50.888;4.746;2023-05-10T10:44:24;64.43;;;59.13;;
21569;SDS011;57598;50.888;4.746;2023-05-10T10:46:58;65.43;;;60.03;;
21569;SDS011;57598;50.888;4.746;2023-05-10T10:49:27;67.35;;;61.78;;
21569;SDS011;57598;50.888;4.746;2023-05-10T10:52:14;68.00;;;62.30;;
21569;SDS011;57598;50.888;4.746;2023-05-10T10:54:50;70.60;;;64.97;;
21569;SDS011;57598;50.888;4.746;2023-05-10T10:57:18;81.30;;;73.95;;
21569;SDS011;57598;50.888;4.746;2023-05-10T10:59:46;96.00;;;89.20;;
21569;SDS011;57598;50.888;4.746;2023-05-10T11:02:32;109.70;;;102.10;;
21569;SDS011;57598;50.888;4.746;2023-05-10T11:05:11;119.03;;;110.57;;
21569;SDS011;57598;50.888;4.746;2023-05-10T11:08:08;108.43;;;100.47;;
21569;SDS011;57598;50.888;4.746;2023-05-10T11:10:37;98.40;;;91.10;;
21569;SDS011;57598;50.888;4.746;2023-05-10T11:13:05;104.63;;;97.25;;
21569;SDS011;57598;50.888;4.746;2023-05-10T11:15:33;92.97;;;86.18;;
21569;SDS011;57598;50.888;4.746;2023-05-10T11:18:15;95.18;;;87.93;;
21569;SDS011;57598;50.888;4.746;2023-05-10T11:20:43;93.25;;;86.15;;
21569;SDS011;57598;50.888;4.746;2023-05-10T11:23:17;109.07;;;101.57;;
21569;SDS011;57598;50.888;4.746;2023-05-10T11:25:46;95.53;;;88.63;;
21569;SDS011;57598;50.888;4.746;2023-05-10T11:28:13;76.68;;;70.55;;
21569;SDS011;57598;50.888;4.746;2023-05-10T11:30:43;73.68;;;67.57;;
21569;SDS011;57598;50.888;4.746;2023-05-10T11:33:14;69.72;;;63.83;;
21569;SDS011;57598;50.888;4.746;2023-05-10T11:38:09;62.65;;;56.65;;
21569;SDS011;57598;50.888;4.746;2023-05-10T11:40:38;58.60;;;52.50;;
21569;SDS011;57598;50.888;4.746;2023-05-10T11:43:06;59.65;;;53.35;;
21569;SDS011;57598;50.888;4.746;2023-05-10T11:45:35;53.17;;;47.47;;
21569;SDS011;57598;50.888;4.746;2023-05-10T11:48:03;55.38;;;49.58;;
21569;SDS011;57598;50.888;4.746;2023-05-10T11:50:30;54.35;;;48.70;;
21569;SDS011;57598;50.888;4.746;2023-05-10T11:52:57;54.63;;;48.92;;
21569;SDS011;57598;50.888;4.746;2023-05-10T11:55:25;54.00;;;48.30;;
21569;SDS011;57598;50.888;4.746;2023-05-10T11:57:53;59.10;;;53.15;;
21569;SDS011;57598;50.888;4.746;2023-05-10T12:00:21;55.38;;;49.67;;
21569;SDS011;57598;50.888;4.746;2023-05-10T12:02:48;56.30;;;50.35;;
21569;SDS011;57598;50.888;4.746;2023-05-10T12:05:16;54.08;;;48.47;;
21569;SDS011;57598;50.888;4.746;2023-05-10T12:07:43;55.72;;;50.03;;
21569;SDS011;57598;50.888;4.746;2023-05-10T12:10:11;54.70;;;49.03;;
21569;SDS011;57598;50.888;4.746;2023-05-10T12:12:40;54.33;;;48.67;;
21569;SDS011;57598;50.888;4.746;2023-05-10T12:15:12;57.28;;;51.47;;
21569;SDS011;57598;50.888;4.746;2023-05-10T12:17:44;55.30;;;49.60;;
21569;SDS011;57598;50.888;4.746;2023-05-10T12:20:18;57.45;;;51.75;;
21569;SDS011;57598;50.888;4.746;2023-05-10T12:22:47;52.65;;;47.15;;
21569;SDS011;57598;50.888;4.746;2023-05-10T12:25:16;52.03;;;46.70;;
21569;SDS011;57598;50.888;4.746;2023-05-10T12:27:53;53.00;;;47.60;;
21569;SDS011;57598;50.888;4.746;2023-05-10T12:30:23;53.85;;;48.45;;
21569;SDS011;57598;50.888;4.746;2023-05-10T12:32:52;54.22;;;48.53;;
21569;SDS011;57598;50.888;4.746;2023-05-10T12:35:19;54.75;;;49.10;;
21569;SDS011;57598;50.888;4.746;2023-05-10T12:37:48;54.38;;;49.15;;
21569;SDS011;57598;50.888;4.746;2023-05-10T12:40:16;52.47;;;47.38;;
21569;SDS011;57598;50.888;4.746;2023-05-10T12:42:43;53.05;;;47.85;;
21569;SDS011;57598;50.888;4.746;2023-05-10T12:45:11;50.33;;;45.28;;
21569;SDS011;57598;50.888;4.746;2023-05-10T12:47:40;53.63;;;48.30;;
21569;SDS011;57598;50.888;4.746;2023-05-10T12:50:07;53.55;;;48.30;;
21569;SDS011;57598;50.888;4.746;2023-05-10T12:52:34;54.35;;;49.17;;
21569;SDS011;57598;50.888;4.746;2023-05-10T12:55:02;54.05;;;49.05;;
21569;SDS011;57598;50.888;4.746;2023-05-10T12:57:29;56.40;;;51.22;;
21569;SDS011;57598;50.888;4.746;2023-05-10T12:59:56;54.33;;;49.33;;
21569;SDS011;57598;50.888;4.746;2023-05-10T13:02:23;54.00;;;48.95;;
21569;SDS011;57598;50.888;4.746;2023-05-10T13:04:52;50.55;;;45.95;;
21569;SDS011;57598;50.888;4.746;2023-05-10T13:07:19;49.72;;;45.13;;
21569;SDS011;57598;50.888;4.746;2023-05-10T13:09:46;50.28;;;45.67;;
21569;SDS011;57598;50.888;4.746;2023-05-10T13:12:13;51.05;;;46.35;;
21569;SDS011;57598;50.888;4.746;2023-05-10T13:14:40;50.05;;;45.38;;
21569;SDS011;57598;50.888;4.746;2023-05-10T13:17:06;47.78;;;43.28;;
21569;SDS011;57598;50.888;4.746;2023-05-10T13:19:34;50.28;;;45.67;;
21569;SDS011;57598;50.888;4.746;2023-05-10T13:22:02;53.72;;;48.83;;
21569;SDS011;57598;50.888;4.746;2023-05-10T13:24:29;53.40;;;48.50;;
21569;SDS011;57598;50.888;4.746;2023-05-10T13:26:56;52.65;;;47.85;;
21569;SDS011;57598;50.888;4.746;2023-05-10T13:29:24;51.88;;;46.95;;
21569;SDS011;57598;50.888;4.746;2023-05-10T13:31:51;52.45;;;47.75;;
21569;SDS011;57598;50.888;4.746;2023-05-10T13:34:18;50.08;;;45.58;;
21569;SDS011;57598;50.888;4.746;2023-05-10T13:36:46;50.67;;;46.08;;
21569;SDS011;57598;50.888;4.746;2023-05-10T13:39:15;51.22;;;46.63;;
21569;SDS011;57598;50.888;4.746;2023-05-10T13:41:42;51.88;;;47.22;;
21569;SDS011;57598;50.888;4.746;2023-05-10T13:44:11;52.67;;;47.97;;
21569;SDS011;57598;50.888;4.746;2023-05-10T13:46:38;53.80;;;48.85;;
21569;SDS011;57598;50.888;4.746;2023-05-10T13:49:05;52.97;;;48.10;;
21569;SDS011;57598;50.888;4.746;2023-05-10T13:51:33;55.20;;;49.95;;
21569;SDS011;57598;50.888;4.746;2023-05-10T13:54:00;52.35;;;47.65;;
21569;SDS011;57598;50.888;4.746;2023-05-10T13:56:29;53.00;;;48.22;;
21569;SDS011;57598;50.888;4.746;2023-05-10T13:58:56;51.72;;;47.05;;
21569;SDS011;57598;50.888;4.746;2023-05-10T14:01:24;52.85;;;48.15;;
21569;SDS011;57598;50.888;4.746;2023-05-10T14:03:51;54.20;;;49.30;;
21569;SDS011;57598;50.888;4.746;2023-05-10T14:06:18;53.90;;;49.10;;
21569;SDS011;57598;50.888;4.746;2023-05-10T14:08:45;56.28;;;51.47;;
21569;SDS011;57598;50.888;4.746;2023-05-10T14:11:12;54.75;;;49.85;;
21569;SDS011;57598;50.888;4.746;2023-05-10T14:13:41;53.70;;;48.90;;
21569;SDS011;57598;50.888;4.746;2023-05-10T14:16:08;52.53;;;47.83;;
21569;SDS011;57598;50.888;4.746;2023-05-10T14:18:35;53.90;;;49.10;;
21569;SDS011;57598;50.888;4.746;2023-05-10T14:21:02;56.15;;;51.15;;
21569;SDS011;57598;50.888;4.746;2023-05-10T14:23:29;52.90;;;48.17;;
21569;SDS011;57598;50.888;4.746;2023-05-10T14:25:56;52.67;;;47.97;;
21569;SDS011;57598;50.888;4.746;2023-05-10T14:28:23;53.90;;;49.20;;
21569;SDS011;57598;50.888;4.746;2023-05-10T14:30:52;53.67;;;48.97;;